sensor_id;sensor_type;location;lat;lon;timestamp;temperature;humidity
78541;SHT31;67835;51.968;5.646;2023-03-01T16:54:51;10.4;28.6
78541;SHT31;67835;51.968;5.646;2023-03-01T16:57:21;10.2;29.3
78541;SHT31;67835;51.968;5.646;2023-03-01T16:59:53;10.2;29.7
78541;SHT31;67835;51.968;5.646;2023-03-01T17:02:23;10.2;30.0
78541;SHT31;67835;51.968;5.646;2023-03-01T17:04:55;10.2;30.1
78541;SHT31;67835;51.968;5.646;2023-03-01T17:07:26;10.2;30.1
78541;SHT31;67835;51.968;5.646;2023-03-01T17:09:57;10.3;30.0
78541;SHT31;67835;51.968;5.646;2023-03-01T17:12:27;10.3;30.2
78541;SHT31;67835;51.968;5.646;2023-03-01T17:14:57;10.3;30.5
78541;SHT31;67835;51.968;5.646;2023-03-01T17:17:27;10.3;31.0
78541;SHT31;67835;51.968;5.646;2023-03-01T17:19:57;10.3;30.5
78541;SHT31;67835;51.968;5.646;2023-03-01T17:22:26;10.2;31.2
78541;SHT31;67835;51.968;5.646;2023-03-01T17:24:56;10.2;31.8
78541;SHT31;67835;51.968;5.646;2023-03-01T17:27:25;10.1;32.3
78541;SHT31;67835;51.968;5.646;2023-03-01T17:29:57;10.1;32.7
78541;SHT31;67835;51.968;5.646;2023-03-01T17:32:26;10.0;33.0
78541;SHT31;67835;51.968;5.646;2023-03-01T17:34:55;10.0;33.6
78541;SHT31;67835;51.968;5.646;2023-03-01T17:37:25;9.9;33.6
78541;SHT31;67835;51.968;5.646;2023-03-01T17:39:54;9.8;33.9
78541;SHT31;67835;51.968;5.646;2023-03-01T17:42:24;9.8;34.2
78541;SHT31;67835;51.968;5.646;2023-03-01T17:44:53;9.7;34.4
78541;SHT31;67835;51.968;5.646;2023-03-01T17:47:24;9.6;34.7
78541;SHT31;67835;51.968;5.646;2023-03-01T17:49:54;9.5;35.0
78541;SHT31;67835;51.968;5.646;2023-03-01T17:52:23;9.5;35.1
78541;SHT31;67835;51.968;5.646;2023-03-01T17:54:53;9.4;35.5
78541;SHT31;67835;51.968;5.646;2023-03-01T17:57:22;9.3;35.5
78541;SHT31;67835;51.968;5.646;2023-03-01T17:59:52;9.2;35.8
78541;SHT31;67835;51.968;5.646;2023-03-01T18:02:21;9.1;36.0
78541;SHT31;67835;51.968;5.646;2023-03-01T18:04:58;9.1;36.2
78541;SHT31;67835;51.968;5.646;2023-03-01T18:07:28;9.0;36.4
78541;SHT31;67835;51.968;5.646;2023-03-01T18:09:57;8.9;36.7
78541;SHT31;67835;51.968;5.646;2023-03-01T18:12:27;8.8;37.0
78541;SHT31;67835;51.968;5.646;2023-03-01T18:14:56;8.8;36.9
78541;SHT31;67835;51.968;5.646;2023-03-01T18:17:26;8.7;37.3
78541;SHT31;67835;51.968;5.646;2023-03-01T18:19:55;8.6;37.4
78541;SHT31;67835;51.968;5.646;2023-03-01T18:22:25;8.6;37.7
78541;SHT31;67835;51.968;5.646;2023-03-01T18:24:55;8.5;37.7
78541;SHT31;67835;51.968;5.646;2023-03-01T18:27:25;8.5;37.8
78541;SHT31;67835;51.968;5.646;2023-03-01T18:29:54;8.4;38.2
78541;SHT31;67835;51.968;5.646;2023-03-01T18:32:24;8.4;38.2
78541;SHT31;67835;51.968;5.646;2023-03-01T18:34:55;8.3;38.2
78541;SHT31;67835;51.968;5.646;2023-03-01T18:37:25;8.2;38.8
78541;SHT31;67835;51.968;5.646;2023-03-01T18:39:54;8.2;38.7
78541;SHT31;67835;51.968;5.646;2023-03-01T18:42:26;8.1;38.7
78541;SHT31;67835;51.968;5.646;2023-03-01T18:44:55;8.1;39.1
78541;SHT31;67835;51.968;5.646;2023-03-01T18:47:27;8.0;39.3
78541;SHT31;67835;51.968;5.646;2023-03-01T18:49:57;7.9;39.4
78541;SHT31;67835;51.968;5.646;2023-03-01T18:52:26;7.9;39.3
78541;SHT31;67835;51.968;5.646;2023-03-01T18:54:56;7.8;39.8
78541;SHT31;67835;51.968;5.646;2023-03-01T18:57:29;7.8;39.8
78541;SHT31;67835;51.968;5.646;2023-03-01T18:59:58;7.7;39.9
78541;SHT31;67835;51.968;5.646;2023-03-01T19:02:28;7.7;40.1
78541;SHT31;67835;51.968;5.646;2023-03-01T19:04:59;7.6;40.3
78541;SHT31;67835;51.968;5.646;2023-03-01T19:07:29;7.6;40.4
78541;SHT31;67835;51.968;5.646;2023-03-01T19:09:59;7.5;40.5
78541;SHT31;67835;51.968;5.646;2023-03-01T19:12:28;7.5;41.1
78541;SHT31;67835;51.968;5.646;2023-03-01T19:14:58;7.4;41.2
78541;SHT31;67835;51.968;5.646;2023-03-01T19:17:29;7.3;40.9
78541;SHT31;67835;51.968;5.646;2023-03-01T19:19:59;7.3;40.8
78541;SHT31;67835;51.968;5.646;2023-03-01T19:22:28;7.2;41.4
78541;SHT31;67835;51.968;5.646;2023-03-01T19:24:58;7.2;41.5
78541;SHT31;67835;51.968;5.646;2023-03-01T19:27:27;7.1;41.6
78541;SHT31;67835;51.968;5.646;2023-03-01T19:29:57;7.1;41.6
78541;SHT31;67835;51.968;5.646;2023-03-01T19:32:27;7.0;41.5
78541;SHT31;67835;51.968;5.646;2023-03-01T19:34:58;7.0;41.8
78541;SHT31;67835;51.968;5.646;2023-03-01T19:37:28;6.9;41.9
78541;SHT31;67835;51.968;5.646;2023-03-01T19:39:57;6.8;42.3
78541;SHT31;67835;51.968;5.646;2023-03-01T19:42:27;6.8;42.2
78541;SHT31;67835;51.968;5.646;2023-03-01T19:44:56;6.7;42.2
78541;SHT31;67835;51.968;5.646;2023-03-01T19:47:26;6.6;42.6
78541;SHT31;67835;51.968;5.646;2023-03-01T19:49:56;6.6;42.7
78541;SHT31;67835;51.968;5.646;2023-03-01T19:52:26;6.5;42.7
78541;SHT31;67835;51.968;5.646;2023-03-01T19:54:55;6.4;43.0
78541;SHT31;67835;51.968;5.646;2023-03-01T19:57:25;6.4;43.0
78541;SHT31;67835;51.968;5.646;2023-03-01T19:59:54;6.3;43.3
78541;SHT31;67835;51.968;5.646;2023-03-01T20:02:24;6.2;43.3
78541;SHT31;67835;51.968;5.646;2023-03-01T20:04:55;6.2;43.4
78541;SHT31;67835;51.968;5.646;2023-03-01T20:07:25;6.1;43.6
78541;SHT31;67835;51.968;5.646;2023-03-01T20:09:54;6.1;43.5
78541;SHT31;67835;51.968;5.646;2023-03-01T20:12:24;6.0;43.9
78541;SHT31;67835;51.968;5.646;2023-03-01T20:14:54;6.0;43.7
78541;SHT31;67835;51.968;5.646;2023-03-01T20:17:23;6.0;44.2
78541;SHT31;67835;51.968;5.646;2023-03-01T20:19:53;5.9;43.9
78541;SHT31;67835;51.968;5.646;2023-03-01T20:22:22;5.9;44.1
78541;SHT31;67835;51.968;5.646;2023-03-01T20:24:52;5.9;44.6
78541;SHT31;67835;51.968;5.646;2023-03-01T20:27:22;5.8;44.1
78541;SHT31;67835;51.968;5.646;2023-03-01T20:29:51;5.8;44.3
78541;SHT31;67835;51.968;5.646;2023-03-01T20:32:21;5.8;44.4
78541;SHT31;67835;51.968;5.646;2023-03-01T20:34:51;5.7;44.4
78541;SHT31;67835;51.968;5.646;2023-03-01T20:37:22;5.7;44.6
78541;SHT31;67835;51.968;5.646;2023-03-01T20:39:54;5.7;44.4
78541;SHT31;67835;51.968;5.646;2023-03-01T20:42:24;5.7;44.8
78541;SHT31;67835;51.968;5.646;2023-03-01T20:44:53;5.6;44.8
78541;SHT31;67835;51.968;5.646;2023-03-01T20:47:23;5.6;44.8
78541;SHT31;67835;51.968;5.646;2023-03-01T20:49:54;5.6;45.1
78541;SHT31;67835;51.968;5.646;2023-03-01T20:52:26;5.6;45.0
78541;SHT31;67835;51.968;5.646;2023-03-01T20:54:56;5.5;45.0
78541;SHT31;67835;51.968;5.646;2023-03-01T20:57:27;5.5;45.2
78541;SHT31;67835;51.968;5.646;2023-03-01T20:59:57;5.5;45.3
78541;SHT31;67835;51.968;5.646;2023-03-01T21:02:28;5.5;45.3
78541;SHT31;67835;51.968;5.646;2023-03-01T21:04:58;5.5;45.6
78541;SHT31;67835;51.968;5.646;2023-03-01T21:07:27;5.5;45.6
78541;SHT31;67835;51.968;5.646;2023-03-01T21:09:57;5.5;45.2
78541;SHT31;67835;51.968;5.646;2023-03-01T21:12:27;5.5;45.2
78541;SHT31;67835;51.968;5.646;2023-03-01T21:14:56;5.4;45.4
78541;SHT31;67835;51.968;5.646;2023-03-01T21:17:26;5.4;45.4
78541;SHT31;67835;51.968;5.646;2023-03-01T21:19:55;5.4;45.4
78541;SHT31;67835;51.968;5.646;2023-03-01T21:22:25;5.4;45.9
78541;SHT31;67835;51.968;5.646;2023-03-01T21:24:55;5.3;45.6
78541;SHT31;67835;51.968;5.646;2023-03-01T21:27:25;5.3;45.9
78541;SHT31;67835;51.968;5.646;2023-03-01T21:29:55;5.3;45.9
78541;SHT31;67835;51.968;5.646;2023-03-01T21:32:24;5.3;46.0
78541;SHT31;67835;51.968;5.646;2023-03-01T21:34:55;5.3;46.1
78541;SHT31;67835;51.968;5.646;2023-03-01T21:37:25;5.2;46.4
78541;SHT31;67835;51.968;5.646;2023-03-01T21:39:55;5.2;46.3
78541;SHT31;67835;51.968;5.646;2023-03-01T21:42:25;5.2;46.4
78541;SHT31;67835;51.968;5.646;2023-03-01T21:44:54;5.2;46.6
78541;SHT31;67835;51.968;5.646;2023-03-01T21:47:24;5.2;46.7
78541;SHT31;67835;51.968;5.646;2023-03-01T21:49:55;5.3;46.8
78541;SHT31;67835;51.968;5.646;2023-03-01T21:52:25;5.3;46.5
78541;SHT31;67835;51.968;5.646;2023-03-01T21:54:54;5.3;46.6
78541;SHT31;67835;51.968;5.646;2023-03-01T21:57:28;5.3;46.5
78541;SHT31;67835;51.968;5.646;2023-03-01T21:59:57;5.3;46.5
78541;SHT31;67835;51.968;5.646;2023-03-01T22:02:29;5.3;46.6
78541;SHT31;67835;51.968;5.646;2023-03-01T22:05:00;5.3;46.5
78541;SHT31;67835;51.968;5.646;2023-03-01T22:07:32;5.2;46.6
78541;SHT31;67835;51.968;5.646;2023-03-01T22:10:02;5.2;46.9
78541;SHT31;67835;51.968;5.646;2023-03-01T22:12:32;5.2;46.8
78541;SHT31;67835;51.968;5.646;2023-03-01T22:15:02;5.2;47.1
78541;SHT31;67835;51.968;5.646;2023-03-01T22:17:32;5.2;47.2
78541;SHT31;67835;51.968;5.646;2023-03-01T22:20:01;5.2;47.2
78541;SHT31;67835;51.968;5.646;2023-03-01T22:22:31;5.2;47.3
78541;SHT31;67835;51.968;5.646;2023-03-01T22:25:02;5.2;47.4
78541;SHT31;67835;51.968;5.646;2023-03-01T22:27:33;5.2;47.7
78541;SHT31;67835;51.968;5.646;2023-03-01T22:30:12;5.1;47.8
78541;SHT31;67835;51.968;5.646;2023-03-01T22:32:42;5.1;47.9
78541;SHT31;67835;51.968;5.646;2023-03-01T22:35:14;5.1;48.1
78541;SHT31;67835;51.968;5.646;2023-03-01T22:37:44;5.1;48.3
78541;SHT31;67835;51.968;5.646;2023-03-01T22:40:14;5.1;48.2
78541;SHT31;67835;51.968;5.646;2023-03-01T22:42:43;5.1;48.3
78541;SHT31;67835;51.968;5.646;2023-03-01T22:45:13;5.1;48.3
78541;SHT31;67835;51.968;5.646;2023-03-01T22:47:43;5.1;48.4
78541;SHT31;67835;51.968;5.646;2023-03-01T22:50:14;5.1;48.4
78541;SHT31;67835;51.968;5.646;2023-03-01T22:52:44;5.1;48.5
78541;SHT31;67835;51.968;5.646;2023-03-01T22:55:13;5.1;48.9
78541;SHT31;67835;51.968;5.646;2023-03-01T22:57:43;5.0;49.0
78541;SHT31;67835;51.968;5.646;2023-03-01T23:00:14;5.0;49.2
78541;SHT31;67835;51.968;5.646;2023-03-01T23:02:44;5.0;49.8
78541;SHT31;67835;51.968;5.646;2023-03-01T23:05:13;5.0;49.9
78541;SHT31;67835;51.968;5.646;2023-03-01T23:07:43;5.0;50.5
78541;SHT31;67835;51.968;5.646;2023-03-01T23:10:17;5.0;50.4
78541;SHT31;67835;51.968;5.646;2023-03-01T23:12:46;5.0;50.5
78541;SHT31;67835;51.968;5.646;2023-03-01T23:15:18;5.0;50.7
78541;SHT31;67835;51.968;5.646;2023-03-01T23:17:48;4.9;51.1
78541;SHT31;67835;51.968;5.646;2023-03-01T23:20:20;4.9;51.5
78541;SHT31;67835;51.968;5.646;2023-03-01T23:22:49;4.9;51.8
78541;SHT31;67835;51.968;5.646;2023-03-01T23:25:19;4.9;52.2
78541;SHT31;67835;51.968;5.646;2023-03-01T23:27:48;4.9;52.2
78541;SHT31;67835;51.968;5.646;2023-03-01T23:30:20;4.9;52.8
78541;SHT31;67835;51.968;5.646;2023-03-01T23:32:50;4.8;53.2
78541;SHT31;67835;51.968;5.646;2023-03-01T23:35:19;4.8;53.5
78541;SHT31;67835;51.968;5.646;2023-03-01T23:37:51;4.8;54.6
78541;SHT31;67835;51.968;5.646;2023-03-01T23:40:22;4.8;54.6
78541;SHT31;67835;51.968;5.646;2023-03-01T23:42:54;4.7;54.8
78541;SHT31;67835;51.968;5.646;2023-03-01T23:45:23;4.7;55.4
78541;SHT31;67835;51.968;5.646;2023-03-01T23:47:53;4.7;56.2
78541;SHT31;67835;51.968;5.646;2023-03-01T23:50:25;4.7;56.6
78541;SHT31;67835;51.968;5.646;2023-03-01T23:52:55;4.6;57.2
78541;SHT31;67835;51.968;5.646;2023-03-01T23:55:25;4.6;57.9
78541;SHT31;67835;51.968;5.646;2023-03-01T23:57:54;4.6;57.9
